sensor_id;sensor_type;location;lat;lon;timestamp;P1;durP1;ratioP1;P2;durP2;ratioP2
31210;SDS011;17836;50.948;3.946;2023-04-02T00:02:29;51.95;;;33.03;;
31210;SDS011;17836;50.948;3.946;2023-04-02T00:07:51;50.45;;;31.13;;
31210;SDS011;17836;50.948;3.946;2023-04-02T00:10:31;49.30;;;31.88;;
31210;SDS011;17836;50.948;3.946;2023-04-02T00:13:01;55.15;;;34.38;;
31210;SDS011;17836;50.948;3.946;2023-04-02T00:15:27;58.40;;;36.47;;
31210;SDS011;17836;50.948;3.946;2023-04-02T00:17:53;53.50;;;33.50;;
31210;SDS011;17836;50.948;3.946;2023-04-02T00:20:18;51.70;;;31.30;;
31210;SDS011;17836;50.948;3.946;2023-04-02T00:22:44;46.03;;;30.40;;
31210;SDS011;17836;50.948;3.946;2023-04-02T00:25:11;39.15;;;26.40;;
31210;SDS011;17836;50.948;3.946;2023-04-02T00:27:37;40.15;;;25.67;;
31210;SDS011;17836;50.948;3.946;2023-04-02T00:30:03;33.88;;;23.77;;
31210;SDS011;17836;50.948;3.946;2023-04-02T00:32:31;35.53;;;24.10;;
31210;SDS011;17836;50.948;3.946;2023-04-02T00:35:02;36.45;;;25.73;;
31210;SDS011;17836;50.948;3.946;2023-04-02T00:37:29;35.83;;;23.13;;
31210;SDS011;17836;50.948;3.946;2023-04-02T00:40:04;41.25;;;24.88;;
31210;SDS011;17836;50.948;3.946;2023-04-02T00:42:31;34.90;;;22.40;;
31210;SDS011;17836;50.948;3.946;2023-04-02T00:44:58;37.65;;;25.23;;
31210;SDS011;17836;50.948;3.946;2023-04-02T00:47:32;35.28;;;24.50;;
31210;SDS011;17836;50.948;3.946;2023-04-02T00:50:00;34.15;;;23.30;;
31210;SDS011;17836;50.948;3.946;2023-04-02T00:52:27;33.30;;;23.95;;
31210;SDS011;17836;50.948;3.946;2023-04-02T00:55:02;30.05;;;22.38;;
31210;SDS011;17836;50.948;3.946;2023-04-02T00:57:28;34.05;;;22.85;;
31210;SDS011;17836;50.948;3.946;2023-04-02T01:02:38;30.88;;;19.90;;
31210;SDS011;17836;50.948;3.946;2023-04-02T01:27:50;26.58;;;17.98;;
31210;SDS011;17836;50.948;3.946;2023-04-02T01:33:01;25.98;;;19.30;;
31210;SDS011;17836;50.948;3.946;2023-04-02T01:35:50;24.50;;;19.08;;
31210;SDS011;17836;50.948;3.946;2023-04-02T01:41:24;21.75;;;18.00;;
31210;SDS011;17836;50.948;3.946;2023-04-02T01:43:57;22.42;;;17.13;;
31210;SDS011;17836;50.948;3.946;2023-04-02T01:46:31;27.05;;;18.17;;
31210;SDS011;17836;50.948;3.946;2023-04-02T01:55:01;27.73;;;19.58;;
31210;SDS011;17836;50.948;3.946;2023-04-02T02:00:14;24.25;;;19.08;;
31210;SDS011;17836;50.948;3.946;2023-04-02T02:02:40;21.75;;;17.88;;
31210;SDS011;17836;50.948;3.946;2023-04-02T02:11:29;23.88;;;18.77;;
31210;SDS011;17836;50.948;3.946;2023-04-02T02:14:32;20.58;;;17.33;;
31210;SDS011;17836;50.948;3.946;2023-04-02T02:25:45;21.83;;;16.92;;
31210;SDS011;17836;50.948;3.946;2023-04-02T02:28:30;22.52;;;17.63;;
31210;SDS011;17836;50.948;3.946;2023-04-02T02:34:20;22.42;;;17.15;;
31210;SDS011;17836;50.948;3.946;2023-04-02T02:39:50;23.33;;;17.88;;
31210;SDS011;17836;50.948;3.946;2023-04-02T02:42:33;25.48;;;17.20;;
31210;SDS011;17836;50.948;3.946;2023-04-02T13:17:44;12.40;;;9.82;;
31210;SDS011;17836;50.948;3.946;2023-04-02T13:20:28;13.45;;;10.10;;
31210;SDS011;17836;50.948;3.946;2023-04-02T13:22:54;11.35;;;8.23;;
31210;SDS011;17836;50.948;3.946;2023-04-02T13:25:21;9.15;;;7.90;;
31210;SDS011;17836;50.948;3.946;2023-04-02T13:27:48;8.35;;;6.95;;
31210;SDS011;17836;50.948;3.946;2023-04-02T13:30:19;7.00;;;6.38;;
31210;SDS011;17836;50.948;3.946;2023-04-02T13:35:11;7.90;;;7.20;;
31210;SDS011;17836;50.948;3.946;2023-04-02T13:37:36;9.73;;;8.73;;
31210;SDS011;17836;50.948;3.946;2023-04-02T13:40:01;9.27;;;8.37;;
31210;SDS011;17836;50.948;3.946;2023-04-02T13:42:27;10.13;;;9.27;;
31210;SDS011;17836;50.948;3.946;2023-04-02T13:44:52;12.30;;;8.07;;
31210;SDS011;17836;50.948;3.946;2023-04-02T13:47:18;12.05;;;9.00;;
31210;SDS011;17836;50.948;3.946;2023-04-02T13:49:43;10.50;;;9.50;;
31210;SDS011;17836;50.948;3.946;2023-04-02T13:52:09;13.77;;;12.77;;
31210;SDS011;17836;50.948;3.946;2023-04-02T13:54:44;17.42;;;14.40;;
31210;SDS011;17836;50.948;3.946;2023-04-02T13:57:12;12.57;;;11.23;;
31210;SDS011;17836;50.948;3.946;2023-04-02T13:59:38;12.20;;;11.02;;
31210;SDS011;17836;50.948;3.946;2023-04-02T14:02:05;13.00;;;11.27;;
31210;SDS011;17836;50.948;3.946;2023-04-02T14:04:34;13.73;;;12.32;;
31210;SDS011;17836;50.948;3.946;2023-04-02T14:09:59;15.70;;;14.13;;
31210;SDS011;17836;50.948;3.946;2023-04-02T14:20:22;15.23;;;13.40;;
31210;SDS011;17836;50.948;3.946;2023-04-02T14:27:45;16.90;;;14.43;;
31210;SDS011;17836;50.948;3.946;2023-04-02T14:30:21;21.52;;;16.15;;
31210;SDS011;17836;50.948;3.946;2023-04-02T14:35:27;21.88;;;17.30;;
31210;SDS011;17836;50.948;3.946;2023-04-02T14:45:30;15.50;;;13.93;;
31210;SDS011;17836;50.948;3.946;2023-04-02T14:48:00;15.75;;;14.23;;
31210;SDS011;17836;50.948;3.946;2023-04-02T14:50:36;16.05;;;14.55;;
31210;SDS011;17836;50.948;3.946;2023-04-02T14:53:03;15.77;;;14.40;;
31210;SDS011;17836;50.948;3.946;2023-04-02T14:55:36;17.17;;;14.15;;
31210;SDS011;17836;50.948;3.946;2023-04-02T14:58:04;14.32;;;13.02;;
31210;SDS011;17836;50.948;3.946;2023-04-02T15:03:15;12.65;;;11.70;;
31210;SDS011;17836;50.948;3.946;2023-04-02T15:08:44;13.95;;;12.52;;
31210;SDS011;17836;50.948;3.946;2023-04-02T15:13:37;13.63;;;12.30;;
31210;SDS011;17836;50.948;3.946;2023-04-02T15:18:29;15.83;;;13.60;;
31210;SDS011;17836;50.948;3.946;2023-04-02T15:23:30;13.20;;;11.88;;
31210;SDS011;17836;50.948;3.946;2023-04-02T15:28:29;10.23;;;9.32;;
31210;SDS011;17836;50.948;3.946;2023-04-02T15:30:59;9.05;;;7.68;;
31210;SDS011;17836;50.948;3.946;2023-04-02T15:35:57;9.43;;;8.43;;
31210;SDS011;17836;50.948;3.946;2023-04-02T15:38:36;9.52;;;8.43;;
31210;SDS011;17836;50.948;3.946;2023-04-02T15:43:39;7.53;;;6.80;;
31210;SDS011;17836;50.948;3.946;2023-04-02T15:49:07;8.02;;;7.22;;
31210;SDS011;17836;50.948;3.946;2023-04-02T15:51:58;8.43;;;6.60;;
31210;SDS011;17836;50.948;3.946;2023-04-02T15:57:01;6.55;;;5.88;;
31210;SDS011;17836;50.948;3.946;2023-04-02T16:01:57;6.33;;;5.57;;
31210;SDS011;17836;50.948;3.946;2023-04-02T16:09:56;4.90;;;3.40;;
31210;SDS011;17836;50.948;3.946;2023-04-02T16:12:26;2.47;;;2.28;;
31210;SDS011;17836;50.948;3.946;2023-04-02T16:14:54;2.85;;;2.55;;
31210;SDS011;17836;50.948;3.946;2023-04-02T16:17:31;6.60;;;4.25;;
31210;SDS011;17836;50.948;3.946;2023-04-02T16:22:45;5.20;;;4.80;;
31210;SDS011;17836;50.948;3.946;2023-04-02T16:25:15;5.85;;;4.88;;
31210;SDS011;17836;50.948;3.946;2023-04-02T16:27:44;6.50;;;5.88;;
31210;SDS011;17836;50.948;3.946;2023-04-02T16:53:17;2.72;;;2.53;;
31210;SDS011;17836;50.948;3.946;2023-04-02T17:01:17;2.50;;;2.20;;
31210;SDS011;17836;50.948;3.946;2023-04-02T17:06:31;2.67;;;2.47;;
31210;SDS011;17836;50.948;3.946;2023-04-02T17:11:31;4.47;;;4.07;;
31210;SDS011;17836;50.948;3.946;2023-04-02T17:16:43;2.92;;;2.17;;
31210;SDS011;17836;50.948;3.946;2023-04-02T17:19:10;2.88;;;2.65;;
31210;SDS011;17836;50.948;3.946;2023-04-02T17:21:38;3.78;;;2.53;;
31210;SDS011;17836;50.948;3.946;2023-04-02T17:26:41;3.65;;;2.28;;
31210;SDS011;17836;50.948;3.946;2023-04-02T17:29:08;2.45;;;2.25;;
31210;SDS011;17836;50.948;3.946;2023-04-02T17:31:37;5.72;;;3.20;;
31210;SDS011;17836;50.948;3.946;2023-04-02T17:34:15;5.03;;;4.18;;
31210;SDS011;17836;50.948;3.946;2023-04-02T17:41:50;5.38;;;4.22;;
31210;SDS011;17836;50.948;3.946;2023-04-02T17:44:27;5.25;;;4.75;;
31210;SDS011;17836;50.948;3.946;2023-04-02T17:57:44;4.75;;;3.80;;
31210;SDS011;17836;50.948;3.946;2023-04-02T18:00:15;6.03;;;4.85;;
31210;SDS011;17836;50.948;3.946;2023-04-02T18:02:48;5.18;;;4.20;;
31210;SDS011;17836;50.948;3.946;2023-04-02T18:05:26;4.53;;;4.13;;
31210;SDS011;17836;50.948;3.946;2023-04-02T18:15:10;7.00;;;6.33;;
31210;SDS011;17836;50.948;3.946;2023-04-02T18:20:19;9.13;;;8.10;;
31210;SDS011;17836;50.948;3.946;2023-04-02T18:22:52;8.00;;;7.18;;
31210;SDS011;17836;50.948;3.946;2023-04-02T18:28:01;8.07;;;7.28;;
31210;SDS011;17836;50.948;3.946;2023-04-02T18:35:38;7.47;;;6.67;;
31210;SDS011;17836;50.948;3.946;2023-04-02T18:38:25;7.30;;;6.63;;
31210;SDS011;17836;50.948;3.946;2023-04-02T18:41:09;7.28;;;6.53;;
31210;SDS011;17836;50.948;3.946;2023-04-02T18:46:10;7.63;;;6.87;;
31210;SDS011;17836;50.948;3.946;2023-04-02T18:48:51;6.97;;;6.38;;
31210;SDS011;17836;50.948;3.946;2023-04-02T18:53:43;7.93;;;7.23;;
31210;SDS011;17836;50.948;3.946;2023-04-02T18:56:13;6.45;;;5.85;;
31210;SDS011;17836;50.948;3.946;2023-04-02T18:58:41;7.05;;;6.45;;
31210;SDS011;17836;50.948;3.946;2023-04-02T19:01:10;5.33;;;4.90;;
31210;SDS011;17836;50.948;3.946;2023-04-02T19:03:51;5.25;;;4.63;;
31210;SDS011;17836;50.948;3.946;2023-04-02T19:08:56;5.78;;;5.28;;
31210;SDS011;17836;50.948;3.946;2023-04-02T19:11:22;6.13;;;5.53;;
31210;SDS011;17836;50.948;3.946;2023-04-02T19:13:57;7.50;;;6.00;;
31210;SDS011;17836;50.948;3.946;2023-04-02T19:16:30;6.60;;;5.50;;
31210;SDS011;17836;50.948;3.946;2023-04-02T19:37:15;8.80;;;7.70;;
31210;SDS011;17836;50.948;3.946;2023-04-02T19:44:49;8.63;;;6.97;;
31210;SDS011;17836;50.948;3.946;2023-04-02T19:47:17;8.05;;;7.25;;
31210;SDS011;17836;50.948;3.946;2023-04-02T19:49:44;7.03;;;6.53;;
31210;SDS011;17836;50.948;3.946;2023-04-02T19:52:09;8.07;;;6.70;;
31210;SDS011;17836;50.948;3.946;2023-04-02T19:54:34;6.55;;;5.95;;
31210;SDS011;17836;50.948;3.946;2023-04-02T19:57:00;6.25;;;5.65;;
31210;SDS011;17836;50.948;3.946;2023-04-02T19:59:27;6.20;;;5.25;;
31210;SDS011;17836;50.948;3.946;2023-04-02T20:01:55;6.82;;;6.10;;
31210;SDS011;17836;50.948;3.946;2023-04-02T20:04:20;6.10;;;5.50;;
31210;SDS011;17836;50.948;3.946;2023-04-02T20:06:45;7.35;;;5.60;;
31210;SDS011;17836;50.948;3.946;2023-04-02T20:09:10;7.22;;;6.22;;
31210;SDS011;17836;50.948;3.946;2023-04-02T20:11:36;7.68;;;6.90;;
31210;SDS011;17836;50.948;3.946;2023-04-02T20:14:02;7.00;;;6.40;;
31210;SDS011;17836;50.948;3.946;2023-04-02T20:16:27;9.23;;;7.13;;
31210;SDS011;17836;50.948;3.946;2023-04-02T20:18:52;9.32;;;7.30;;
31210;SDS011;17836;50.948;3.946;2023-04-02T20:21:18;7.97;;;7.18;;
31210;SDS011;17836;50.948;3.946;2023-04-02T20:23:46;8.00;;;6.80;;
31210;SDS011;17836;50.948;3.946;2023-04-02T20:26:11;7.72;;;7.07;;
31210;SDS011;17836;50.948;3.946;2023-04-02T20:28:37;8.38;;;7.57;;
31210;SDS011;17836;50.948;3.946;2023-04-02T20:31:09;9.77;;;8.13;;
31210;SDS011;17836;50.948;3.946;2023-04-02T20:33:37;8.32;;;7.07;;
31210;SDS011;17836;50.948;3.946;2023-04-02T20:36:04;8.70;;;7.90;;
31210;SDS011;17836;50.948;3.946;2023-04-02T20:38:29;9.45;;;7.75;;
31210;SDS011;17836;50.948;3.946;2023-04-02T20:40:55;9.07;;;8.20;;
31210;SDS011;17836;50.948;3.946;2023-04-02T20:43:21;7.95;;;7.25;;
31210;SDS011;17836;50.948;3.946;2023-04-02T20:45:56;8.90;;;8.10;;
31210;SDS011;17836;50.948;3.946;2023-04-02T20:48:25;10.80;;;7.82;;
31210;SDS011;17836;50.948;3.946;2023-04-02T20:50:54;8.13;;;7.40;;
31210;SDS011;17836;50.948;3.946;2023-04-02T20:53:19;7.18;;;6.57;;
31210;SDS011;17836;50.948;3.946;2023-04-02T20:55:47;8.02;;;7.22;;
31210;SDS011;17836;50.948;3.946;2023-04-02T20:58:13;7.80;;;7.15;;
31210;SDS011;17836;50.948;3.946;2023-04-02T21:00:39;8.77;;;7.85;;
31210;SDS011;17836;50.948;3.946;2023-04-02T21:03:04;8.45;;;7.55;;
31210;SDS011;17836;50.948;3.946;2023-04-02T21:05:32;10.23;;;8.95;;
31210;SDS011;17836;50.948;3.946;2023-04-02T21:07:57;10.13;;;9.10;;
31210;SDS011;17836;50.948;3.946;2023-04-02T21:10:23;9.07;;;8.27;;
31210;SDS011;17836;50.948;3.946;2023-04-02T21:12:48;10.88;;;9.88;;
31210;SDS011;17836;50.948;3.946;2023-04-02T21:15:14;11.02;;;9.70;;
31210;SDS011;17836;50.948;3.946;2023-04-02T21:17:41;13.02;;;11.68;;
31210;SDS011;17836;50.948;3.946;2023-04-02T21:20:07;11.60;;;10.23;;
31210;SDS011;17836;50.948;3.946;2023-04-02T21:22:32;9.00;;;8.13;;
31210;SDS011;17836;50.948;3.946;2023-04-02T21:24:58;8.80;;;7.90;;
31210;SDS011;17836;50.948;3.946;2023-04-02T21:27:25;12.23;;;8.77;;
31210;SDS011;17836;50.948;3.946;2023-04-02T21:29:51;10.60;;;8.90;;
31210;SDS011;17836;50.948;3.946;2023-04-02T21:32:16;10.77;;;9.75;;
31210;SDS011;17836;50.948;3.946;2023-04-02T21:34:41;10.95;;;9.85;;
31210;SDS011;17836;50.948;3.946;2023-04-02T21:37:06;11.55;;;10.38;;
31210;SDS011;17836;50.948;3.946;2023-04-02T21:39:32;13.33;;;11.60;;
31210;SDS011;17836;50.948;3.946;2023-04-02T21:41:59;12.48;;;10.77;;
31210;SDS011;17836;50.948;3.946;2023-04-02T21:44:25;14.40;;;11.68;;
31210;SDS011;17836;50.948;3.946;2023-04-02T21:46:53;16.08;;;11.02;;
31210;SDS011;17836;50.948;3.946;2023-04-02T21:49:19;11.80;;;10.48;;
31210;SDS011;17836;50.948;3.946;2023-04-02T21:51:46;11.48;;;10.27;;
31210;SDS011;17836;50.948;3.946;2023-04-02T21:54:11;10.10;;;9.18;;
31210;SDS011;17836;50.948;3.946;2023-04-02T21:56:42;11.45;;;10.25;;
31210;SDS011;17836;50.948;3.946;2023-04-02T21:59:09;12.57;;;10.52;;
31210;SDS011;17836;50.948;3.946;2023-04-02T22:01:35;12.10;;;10.85;;
31210;SDS011;17836;50.948;3.946;2023-04-02T22:04:02;10.90;;;9.88;;
31210;SDS011;17836;50.948;3.946;2023-04-02T22:06:28;11.45;;;10.35;;
31210;SDS011;17836;50.948;3.946;2023-04-02T22:08:55;11.98;;;10.88;;
31210;SDS011;17836;50.948;3.946;2023-04-02T22:11:21;13.20;;;10.63;;
31210;SDS011;17836;50.948;3.946;2023-04-02T22:13:47;11.20;;;10.05;;
31210;SDS011;17836;50.948;3.946;2023-04-02T22:16:19;11.70;;;10.45;;
31210;SDS011;17836;50.948;3.946;2023-04-02T22:18:45;12.63;;;11.40;;
31210;SDS011;17836;50.948;3.946;2023-04-02T22:21:11;12.60;;;11.38;;
31210;SDS011;17836;50.948;3.946;2023-04-02T22:23:37;14.65;;;11.85;;
31210;SDS011;17836;50.948;3.946;2023-04-02T22:26:03;11.85;;;10.65;;
31210;SDS011;17836;50.948;3.946;2023-04-02T22:28:29;13.35;;;10.88;;
31210;SDS011;17836;50.948;3.946;2023-04-02T22:30:54;12.15;;;10.60;;
31210;SDS011;17836;50.948;3.946;2023-04-02T22:33:20;11.75;;;10.55;;
31210;SDS011;17836;50.948;3.946;2023-04-02T22:35:51;14.63;;;11.48;;
31210;SDS011;17836;50.948;3.946;2023-04-02T22:38:17;13.27;;;11.98;;
31210;SDS011;17836;50.948;3.946;2023-04-02T22:40:42;14.98;;;12.70;;
31210;SDS011;17836;50.948;3.946;2023-04-02T22:43:07;12.65;;;11.35;;
31210;SDS011;17836;50.948;3.946;2023-04-02T22:45:32;14.50;;;11.73;;
31210;SDS011;17836;50.948;3.946;2023-04-02T22:47:58;13.63;;;12.23;;
31210;SDS011;17836;50.948;3.946;2023-04-02T22:50:24;18.02;;;13.00;;
31210;SDS011;17836;50.948;3.946;2023-04-02T22:52:49;15.95;;;12.50;;
31210;SDS011;17836;50.948;3.946;2023-04-02T22:55:15;14.55;;;12.15;;
31210;SDS011;17836;50.948;3.946;2023-04-02T22:57:42;12.77;;;11.57;;
31210;SDS011;17836;50.948;3.946;2023-04-02T23:00:09;15.40;;;12.82;;
31210;SDS011;17836;50.948;3.946;2023-04-02T23:02:36;17.02;;;13.23;;
31210;SDS011;17836;50.948;3.946;2023-04-02T23:05:02;15.25;;;13.25;;
31210;SDS011;17836;50.948;3.946;2023-04-02T23:07:28;16.45;;;13.88;;
31210;SDS011;17836;50.948;3.946;2023-04-02T23:09:53;14.90;;;13.43;;
31210;SDS011;17836;50.948;3.946;2023-04-02T23:12:18;15.48;;;13.18;;
31210;SDS011;17836;50.948;3.946;2023-04-02T23:14:44;13.73;;;12.32;;
31210;SDS011;17836;50.948;3.946;2023-04-02T23:17:09;14.77;;;12.10;;
31210;SDS011;17836;50.948;3.946;2023-04-02T23:19:34;14.88;;;12.52;;
31210;SDS011;17836;50.948;3.946;2023-04-02T23:21:59;13.85;;;12.35;;
31210;SDS011;17836;50.948;3.946;2023-04-02T23:24:25;14.50;;;12.98;;
31210;SDS011;17836;50.948;3.946;2023-04-02T23:26:50;16.65;;;14.02;;
31210;SDS011;17836;50.948;3.946;2023-04-02T23:29:15;15.85;;;13.82;;
31210;SDS011;17836;50.948;3.946;2023-04-02T23:31:43;17.45;;;12.40;;
31210;SDS011;17836;50.948;3.946;2023-04-02T23:34:09;15.50;;;13.82;;
31210;SDS011;17836;50.948;3.946;2023-04-02T23:36:34;15.85;;;14.23;;
31210;SDS011;17836;50.948;3.946;2023-04-02T23:39:06;14.30;;;12.75;;
31210;SDS011;17836;50.948;3.946;2023-04-02T23:41:38;14.50;;;13.07;;
31210;SDS011;17836;50.948;3.946;2023-04-02T23:44:03;16.65;;;14.73;;
31210;SDS011;17836;50.948;3.946;2023-04-02T23:46:29;15.55;;;12.70;;
31210;SDS011;17836;50.948;3.946;2023-04-02T23:48:54;17.98;;;14.20;;
31210;SDS011;17836;50.948;3.946;2023-04-02T23:51:22;15.25;;;12.98;;
31210;SDS011;17836;50.948;3.946;2023-04-02T23:53:51;14.15;;;12.45;;
31210;SDS011;17836;50.948;3.946;2023-04-02T23:56:17;14.25;;;12.75;;
31210;SDS011;17836;50.948;3.946;2023-04-02T23:58:42;14.90;;;12.00;;
